sensor_id;sensor_type;location;lat;lon;timestamp;P1;durP1;ratioP1;P2;durP2;ratioP2
6033;SDS011;3045;43.226;27.858;2023-04-21T00:01:29;16.27;;;6.53;;
6033;SDS011;3045;43.226;27.858;2023-04-21T00:03:57;9.57;;;5.90;;
6033;SDS011;3045;43.226;27.858;2023-04-21T00:06:24;11.47;;;6.47;;
6033;SDS011;3045;43.226;27.858;2023-04-21T00:08:53;22.40;;;7.00;;
6033;SDS011;3045;43.226;27.858;2023-04-21T00:11:20;24.70;;;7.00;;
6033;SDS011;3045;43.226;27.858;2023-04-21T00:13:48;19.13;;;6.30;;
6033;SDS011;3045;43.226;27.858;2023-04-21T00:16:14;22.73;;;6.87;;
6033;SDS011;3045;43.226;27.858;2023-04-21T00:18:41;20.43;;;6.70;;
6033;SDS011;3045;43.226;27.858;2023-04-21T00:21:08;19.10;;;6.43;;
6033;SDS011;3045;43.226;27.858;2023-04-21T00:23:35;17.70;;;6.00;;
6033;SDS011;3045;43.226;27.858;2023-04-21T00:26:03;16.97;;;6.60;;
6033;SDS011;3045;43.226;27.858;2023-04-21T00:28:30;17.17;;;6.20;;
6033;SDS011;3045;43.226;27.858;2023-04-21T00:30:57;23.30;;;6.60;;
6033;SDS011;3045;43.226;27.858;2023-04-21T00:33:24;13.67;;;6.57;;
6033;SDS011;3045;43.226;27.858;2023-04-21T00:35:51;25.20;;;6.57;;
6033;SDS011;3045;43.226;27.858;2023-04-21T00:38:18;13.33;;;6.00;;
6033;SDS011;3045;43.226;27.858;2023-04-21T00:40:45;15.23;;;6.30;;
6033;SDS011;3045;43.226;27.858;2023-04-21T00:43:13;17.57;;;6.07;;
6033;SDS011;3045;43.226;27.858;2023-04-21T00:45:40;18.40;;;6.03;;
6033;SDS011;3045;43.226;27.858;2023-04-21T00:48:10;13.70;;;6.40;;
6033;SDS011;3045;43.226;27.858;2023-04-21T00:50:37;16.10;;;6.73;;
6033;SDS011;3045;43.226;27.858;2023-04-21T00:53:04;11.20;;;6.43;;
6033;SDS011;3045;43.226;27.858;2023-04-21T00:55:31;9.57;;;6.40;;
6033;SDS011;3045;43.226;27.858;2023-04-21T00:57:58;13.93;;;7.47;;
6033;SDS011;3045;43.226;27.858;2023-04-21T01:00:27;19.27;;;8.37;;
6033;SDS011;3045;43.226;27.858;2023-04-21T01:02:56;18.83;;;8.73;;
6033;SDS011;3045;43.226;27.858;2023-04-21T01:05:25;16.53;;;8.17;;
6033;SDS011;3045;43.226;27.858;2023-04-21T01:07:52;11.43;;;7.37;;
6033;SDS011;3045;43.226;27.858;2023-04-21T01:10:19;18.40;;;7.43;;
6033;SDS011;3045;43.226;27.858;2023-04-21T01:12:46;12.50;;;7.37;;
6033;SDS011;3045;43.226;27.858;2023-04-21T01:15:14;21.47;;;7.33;;
6033;SDS011;3045;43.226;27.858;2023-04-21T01:17:43;8.83;;;6.77;;
6033;SDS011;3045;43.226;27.858;2023-04-21T01:20:12;16.23;;;7.63;;
6033;SDS011;3045;43.226;27.858;2023-04-21T01:22:41;13.03;;;6.47;;
6033;SDS011;3045;43.226;27.858;2023-04-21T01:25:09;11.77;;;6.87;;
6033;SDS011;3045;43.226;27.858;2023-04-21T01:27:36;14.10;;;7.23;;
6033;SDS011;3045;43.226;27.858;2023-04-21T01:30:03;17.87;;;7.50;;
6033;SDS011;3045;43.226;27.858;2023-04-21T01:32:31;21.83;;;7.27;;
6033;SDS011;3045;43.226;27.858;2023-04-21T01:34:58;16.13;;;7.80;;
6033;SDS011;3045;43.226;27.858;2023-04-21T01:37:27;13.67;;;7.83;;
6033;SDS011;3045;43.226;27.858;2023-04-21T01:39:58;29.50;;;8.37;;
6033;SDS011;3045;43.226;27.858;2023-04-21T01:42:26;25.90;;;8.20;;
6033;SDS011;3045;43.226;27.858;2023-04-21T01:44:55;19.93;;;7.80;;
6033;SDS011;3045;43.226;27.858;2023-04-21T01:47:22;22.50;;;8.00;;
6033;SDS011;3045;43.226;27.858;2023-04-21T01:49:50;21.77;;;8.00;;
6033;SDS011;3045;43.226;27.858;2023-04-21T01:52:17;21.87;;;8.07;;
6033;SDS011;3045;43.226;27.858;2023-04-21T01:54:43;14.50;;;7.57;;
6033;SDS011;3045;43.226;27.858;2023-04-21T01:57:12;23.80;;;8.40;;
6033;SDS011;3045;43.226;27.858;2023-04-21T01:59:39;13.87;;;8.57;;
6033;SDS011;3045;43.226;27.858;2023-04-21T02:02:05;13.33;;;8.07;;
6033;SDS011;3045;43.226;27.858;2023-04-21T02:04:32;25.90;;;7.53;;
6033;SDS011;3045;43.226;27.858;2023-04-21T02:06:59;18.23;;;8.73;;
6033;SDS011;3045;43.226;27.858;2023-04-21T02:09:26;16.97;;;8.50;;
6033;SDS011;3045;43.226;27.858;2023-04-21T02:11:54;20.50;;;8.00;;
6033;SDS011;3045;43.226;27.858;2023-04-21T02:14:23;17.70;;;8.10;;
6033;SDS011;3045;43.226;27.858;2023-04-21T02:16:51;21.47;;;7.83;;
6033;SDS011;3045;43.226;27.858;2023-04-21T02:19:17;16.20;;;8.00;;
6033;SDS011;3045;43.226;27.858;2023-04-21T02:21:44;9.20;;;7.43;;
6033;SDS011;3045;43.226;27.858;2023-04-21T02:24:11;8.23;;;7.30;;
6033;SDS011;3045;43.226;27.858;2023-04-21T02:26:38;16.17;;;7.57;;
6033;SDS011;3045;43.226;27.858;2023-04-21T02:29:05;11.63;;;7.17;;
6033;SDS011;3045;43.226;27.858;2023-04-21T02:31:33;17.37;;;7.07;;
6033;SDS011;3045;43.226;27.858;2023-04-21T02:34:00;14.57;;;7.53;;
6033;SDS011;3045;43.226;27.858;2023-04-21T02:36:27;17.43;;;7.30;;
6033;SDS011;3045;43.226;27.858;2023-04-21T02:38:54;13.30;;;6.80;;
6033;SDS011;3045;43.226;27.858;2023-04-21T02:41:21;16.50;;;7.30;;
6033;SDS011;3045;43.226;27.858;2023-04-21T02:43:48;15.07;;;7.27;;
6033;SDS011;3045;43.226;27.858;2023-04-21T02:46:15;13.97;;;6.80;;
6033;SDS011;3045;43.226;27.858;2023-04-21T02:48:43;12.87;;;6.80;;
6033;SDS011;3045;43.226;27.858;2023-04-21T02:51:10;11.27;;;6.77;;
6033;SDS011;3045;43.226;27.858;2023-04-21T02:53:38;12.93;;;6.90;;
6033;SDS011;3045;43.226;27.858;2023-04-21T02:56:05;13.93;;;6.13;;
6033;SDS011;3045;43.226;27.858;2023-04-21T02:58:33;9.43;;;6.53;;
6033;SDS011;3045;43.226;27.858;2023-04-21T03:01:00;7.67;;;6.83;;
6033;SDS011;3045;43.226;27.858;2023-04-21T03:03:28;16.50;;;7.50;;
6033;SDS011;3045;43.226;27.858;2023-04-21T03:05:57;16.20;;;6.97;;
6033;SDS011;3045;43.226;27.858;2023-04-21T03:08:24;17.80;;;7.10;;
6033;SDS011;3045;43.226;27.858;2023-04-21T03:10:51;17.20;;;7.27;;
6033;SDS011;3045;43.226;27.858;2023-04-21T03:13:19;21.10;;;7.53;;
6033;SDS011;3045;43.226;27.858;2023-04-21T03:15:46;24.83;;;7.93;;
6033;SDS011;3045;43.226;27.858;2023-04-21T03:18:12;17.50;;;7.50;;
6033;SDS011;3045;43.226;27.858;2023-04-21T03:20:39;22.13;;;8.53;;
6033;SDS011;3045;43.226;27.858;2023-04-21T03:23:08;16.73;;;6.63;;
6033;SDS011;3045;43.226;27.858;2023-04-21T03:25:35;26.77;;;7.37;;
6033;SDS011;3045;43.226;27.858;2023-04-21T03:28:03;30.20;;;8.07;;
6033;SDS011;3045;43.226;27.858;2023-04-21T03:30:30;12.00;;;7.80;;
6033;SDS011;3045;43.226;27.858;2023-04-21T03:32:57;20.47;;;7.93;;
6033;SDS011;3045;43.226;27.858;2023-04-21T03:35:23;14.73;;;7.97;;
6033;SDS011;3045;43.226;27.858;2023-04-21T03:37:51;18.00;;;8.63;;
6033;SDS011;3045;43.226;27.858;2023-04-21T03:40:19;21.23;;;7.73;;
6033;SDS011;3045;43.226;27.858;2023-04-21T03:42:46;18.03;;;8.47;;
6033;SDS011;3045;43.226;27.858;2023-04-21T03:45:13;13.87;;;7.50;;
6033;SDS011;3045;43.226;27.858;2023-04-21T03:47:39;10.10;;;7.67;;
6033;SDS011;3045;43.226;27.858;2023-04-21T03:50:06;15.87;;;7.53;;
6033;SDS011;3045;43.226;27.858;2023-04-21T03:52:33;19.23;;;7.77;;
6033;SDS011;3045;43.226;27.858;2023-04-21T03:55:00;19.20;;;8.07;;
6033;SDS011;3045;43.226;27.858;2023-04-21T03:57:28;18.00;;;7.70;;
6033;SDS011;3045;43.226;27.858;2023-04-21T03:59:55;18.03;;;7.80;;
6033;SDS011;3045;43.226;27.858;2023-04-21T04:02:22;20.60;;;7.97;;
6033;SDS011;3045;43.226;27.858;2023-04-21T04:04:49;18.60;;;8.43;;
6033;SDS011;3045;43.226;27.858;2023-04-21T04:07:16;27.97;;;9.40;;
6033;SDS011;3045;43.226;27.858;2023-04-21T04:09:42;27.17;;;8.77;;
6033;SDS011;3045;43.226;27.858;2023-04-21T04:12:09;31.67;;;8.77;;
6033;SDS011;3045;43.226;27.858;2023-04-21T04:14:38;26.47;;;9.00;;
6033;SDS011;3045;43.226;27.858;2023-04-21T04:17:05;23.77;;;8.93;;
6033;SDS011;3045;43.226;27.858;2023-04-21T04:19:31;30.37;;;10.50;;
6033;SDS011;3045;43.226;27.858;2023-04-21T04:21:58;31.70;;;10.27;;
6033;SDS011;3045;43.226;27.858;2023-04-21T04:24:25;26.47;;;10.93;;
6033;SDS011;3045;43.226;27.858;2023-04-21T04:26:52;21.37;;;9.53;;
6033;SDS011;3045;43.226;27.858;2023-04-21T04:29:21;37.87;;;10.23;;
6033;SDS011;3045;43.226;27.858;2023-04-21T04:31:50;25.57;;;9.50;;
6033;SDS011;3045;43.226;27.858;2023-04-21T04:34:17;52.27;;;11.40;;
6033;SDS011;3045;43.226;27.858;2023-04-21T04:36:44;28.53;;;10.30;;
6033;SDS011;3045;43.226;27.858;2023-04-21T04:39:12;30.80;;;10.77;;
6033;SDS011;3045;43.226;27.858;2023-04-21T04:41:38;37.70;;;10.20;;
6033;SDS011;3045;43.226;27.858;2023-04-21T04:44:05;29.40;;;9.87;;
6033;SDS011;3045;43.226;27.858;2023-04-21T04:46:33;31.47;;;9.67;;
6033;SDS011;3045;43.226;27.858;2023-04-21T04:49:01;21.03;;;9.40;;
6033;SDS011;3045;43.226;27.858;2023-04-21T04:51:29;29.00;;;10.20;;
6033;SDS011;3045;43.226;27.858;2023-04-21T04:53:56;17.80;;;8.67;;
6033;SDS011;3045;43.226;27.858;2023-04-21T04:56:23;43.20;;;10.40;;
6033;SDS011;3045;43.226;27.858;2023-04-21T04:58:50;37.33;;;11.00;;
6033;SDS011;3045;43.226;27.858;2023-04-21T05:01:17;35.20;;;10.33;;
6033;SDS011;3045;43.226;27.858;2023-04-21T05:03:44;32.97;;;10.63;;
6033;SDS011;3045;43.226;27.858;2023-04-21T05:06:13;36.43;;;11.20;;
6033;SDS011;3045;43.226;27.858;2023-04-21T05:08:40;34.63;;;11.83;;
6033;SDS011;3045;43.226;27.858;2023-04-21T05:11:07;32.20;;;11.07;;
6033;SDS011;3045;43.226;27.858;2023-04-21T05:13:34;26.23;;;10.63;;
6033;SDS011;3045;43.226;27.858;2023-04-21T05:16:01;35.03;;;9.70;;
6033;SDS011;3045;43.226;27.858;2023-04-21T05:18:28;37.97;;;9.50;;
6033;SDS011;3045;43.226;27.858;2023-04-21T05:20:55;21.70;;;8.83;;
6033;SDS011;3045;43.226;27.858;2023-04-21T05:23:23;21.17;;;10.00;;
6033;SDS011;3045;43.226;27.858;2023-04-21T05:25:50;24.40;;;9.93;;
6033;SDS011;3045;43.226;27.858;2023-04-21T05:28:17;17.10;;;9.00;;
6033;SDS011;3045;43.226;27.858;2023-04-21T05:30:44;10.47;;;9.37;;
6033;SDS011;3045;43.226;27.858;2023-04-21T05:33:11;32.93;;;10.63;;
6033;SDS011;3045;43.226;27.858;2023-04-21T05:35:37;24.73;;;12.93;;
6033;SDS011;3045;43.226;27.858;2023-04-21T05:38:05;32.93;;;13.03;;
6033;SDS011;3045;43.226;27.858;2023-04-21T05:40:33;38.80;;;14.33;;
6033;SDS011;3045;43.226;27.858;2023-04-21T05:43:00;38.13;;;16.43;;
6033;SDS011;3045;43.226;27.858;2023-04-21T05:45:26;35.23;;;16.40;;
6033;SDS011;3045;43.226;27.858;2023-04-21T05:47:53;44.57;;;18.00;;
6033;SDS011;3045;43.226;27.858;2023-04-21T05:50:20;32.57;;;17.73;;
6033;SDS011;3045;43.226;27.858;2023-04-21T05:52:47;33.10;;;17.57;;
6033;SDS011;3045;43.226;27.858;2023-04-21T05:55:14;46.13;;;19.07;;
6033;SDS011;3045;43.226;27.858;2023-04-21T05:57:42;36.90;;;17.27;;
6033;SDS011;3045;43.226;27.858;2023-04-21T06:00:10;33.07;;;17.47;;
6033;SDS011;3045;43.226;27.858;2023-04-21T06:02:37;39.17;;;17.80;;
6033;SDS011;3045;43.226;27.858;2023-04-21T06:05:04;33.40;;;22.70;;
6033;SDS011;3045;43.226;27.858;2023-04-21T06:07:31;41.03;;;18.50;;
6033;SDS011;3045;43.226;27.858;2023-04-21T06:10:01;34.77;;;18.10;;
6033;SDS011;3045;43.226;27.858;2023-04-21T06:12:28;39.53;;;18.07;;
6033;SDS011;3045;43.226;27.858;2023-04-21T06:14:56;33.07;;;16.87;;
6033;SDS011;3045;43.226;27.858;2023-04-21T06:17:23;32.17;;;15.83;;
6033;SDS011;3045;43.226;27.858;2023-04-21T06:19:50;50.33;;;15.27;;
6033;SDS011;3045;43.226;27.858;2023-04-21T06:22:17;12.03;;;6.33;;
6033;SDS011;3045;43.226;27.858;2023-04-21T06:24:45;3.30;;;2.93;;
6033;SDS011;3045;43.226;27.858;2023-04-21T06:27:12;6.53;;;3.23;;
6033;SDS011;3045;43.226;27.858;2023-04-21T06:29:39;3.77;;;2.93;;
6033;SDS011;3045;43.226;27.858;2023-04-21T06:32:08;4.90;;;3.97;;
6033;SDS011;3045;43.226;27.858;2023-04-21T06:34:36;5.10;;;3.23;;
6033;SDS011;3045;43.226;27.858;2023-04-21T06:37:03;8.03;;;3.20;;
6033;SDS011;3045;43.226;27.858;2023-04-21T06:39:30;8.17;;;3.47;;
6033;SDS011;3045;43.226;27.858;2023-04-21T06:41:57;7.73;;;2.90;;
6033;SDS011;3045;43.226;27.858;2023-04-21T06:44:24;6.90;;;3.03;;
6033;SDS011;3045;43.226;27.858;2023-04-21T06:46:50;4.37;;;2.80;;
6033;SDS011;3045;43.226;27.858;2023-04-21T06:49:19;5.00;;;3.37;;
6033;SDS011;3045;43.226;27.858;2023-04-21T06:51:46;6.13;;;2.70;;
6033;SDS011;3045;43.226;27.858;2023-04-21T06:54:12;4.47;;;2.50;;
6033;SDS011;3045;43.226;27.858;2023-04-21T06:56:40;2.70;;;2.50;;
6033;SDS011;3045;43.226;27.858;2023-04-21T06:59:07;8.40;;;2.63;;
6033;SDS011;3045;43.226;27.858;2023-04-21T07:01:34;2.27;;;2.07;;
6033;SDS011;3045;43.226;27.858;2023-04-21T07:04:01;10.43;;;4.03;;
6033;SDS011;3045;43.226;27.858;2023-04-21T07:06:29;5.73;;;2.33;;
6033;SDS011;3045;43.226;27.858;2023-04-21T07:08:57;8.33;;;2.93;;
6033;SDS011;3045;43.226;27.858;2023-04-21T07:11:24;11.93;;;2.87;;
6033;SDS011;3045;43.226;27.858;2023-04-21T07:13:53;3.23;;;2.20;;
6033;SDS011;3045;43.226;27.858;2023-04-21T07:16:20;7.50;;;2.53;;
6033;SDS011;3045;43.226;27.858;2023-04-21T07:18:48;8.70;;;3.20;;
6033;SDS011;3045;43.226;27.858;2023-04-21T07:21:15;6.40;;;3.60;;
6033;SDS011;3045;43.226;27.858;2023-04-21T07:23:43;6.77;;;2.93;;
6033;SDS011;3045;43.226;27.858;2023-04-21T07:26:10;10.83;;;4.20;;
6033;SDS011;3045;43.226;27.858;2023-04-21T07:28:37;7.30;;;3.47;;
6033;SDS011;3045;43.226;27.858;2023-04-21T07:31:04;6.90;;;2.93;;
6033;SDS011;3045;43.226;27.858;2023-04-21T07:33:31;3.63;;;2.50;;
6033;SDS011;3045;43.226;27.858;2023-04-21T07:36:01;4.00;;;3.00;;
6033;SDS011;3045;43.226;27.858;2023-04-21T07:38:27;5.57;;;2.70;;
6033;SDS011;3045;43.226;27.858;2023-04-21T07:40:56;6.73;;;2.90;;
6033;SDS011;3045;43.226;27.858;2023-04-21T07:43:24;3.93;;;3.63;;
6033;SDS011;3045;43.226;27.858;2023-04-21T07:45:51;4.90;;;3.60;;
6033;SDS011;3045;43.226;27.858;2023-04-21T07:48:18;13.00;;;3.87;;
6033;SDS011;3045;43.226;27.858;2023-04-21T07:50:44;61.53;;;8.03;;
6033;SDS011;3045;43.226;27.858;2023-04-21T07:53:11;49.20;;;5.53;;
6033;SDS011;3045;43.226;27.858;2023-04-21T07:55:38;13.57;;;4.57;;
6033;SDS011;3045;43.226;27.858;2023-04-21T07:58:06;17.03;;;4.57;;
6033;SDS011;3045;43.226;27.858;2023-04-21T08:00:34;15.80;;;4.00;;
6033;SDS011;3045;43.226;27.858;2023-04-21T08:03:01;12.17;;;4.70;;
6033;SDS011;3045;43.226;27.858;2023-04-21T08:05:28;10.30;;;3.87;;
6033;SDS011;3045;43.226;27.858;2023-04-21T08:07:56;10.90;;;3.80;;
6033;SDS011;3045;43.226;27.858;2023-04-21T08:10:23;13.90;;;4.07;;
6033;SDS011;3045;43.226;27.858;2023-04-21T08:12:50;17.50;;;3.87;;
6033;SDS011;3045;43.226;27.858;2023-04-21T08:15:20;16.73;;;4.13;;
6033;SDS011;3045;43.226;27.858;2023-04-21T08:17:47;22.93;;;4.63;;
6033;SDS011;3045;43.226;27.858;2023-04-21T08:20:14;7.67;;;3.50;;
6033;SDS011;3045;43.226;27.858;2023-04-21T08:22:41;10.53;;;3.83;;
6033;SDS011;3045;43.226;27.858;2023-04-21T08:25:08;16.80;;;3.83;;
6033;SDS011;3045;43.226;27.858;2023-04-21T08:27:36;7.00;;;3.90;;
6033;SDS011;3045;43.226;27.858;2023-04-21T08:30:04;26.60;;;4.00;;
6033;SDS011;3045;43.226;27.858;2023-04-21T08:32:33;14.03;;;4.20;;
6033;SDS011;3045;43.226;27.858;2023-04-21T08:35:00;10.67;;;2.83;;
6033;SDS011;3045;43.226;27.858;2023-04-21T08:37:26;43.20;;;6.73;;
6033;SDS011;3045;43.226;27.858;2023-04-21T08:39:55;14.60;;;4.00;;
6033;SDS011;3045;43.226;27.858;2023-04-21T08:42:22;12.27;;;3.87;;
6033;SDS011;3045;43.226;27.858;2023-04-21T08:44:49;18.43;;;3.63;;
6033;SDS011;3045;43.226;27.858;2023-04-21T08:47:16;15.73;;;3.77;;
6033;SDS011;3045;43.226;27.858;2023-04-21T08:49:45;11.67;;;3.43;;
6033;SDS011;3045;43.226;27.858;2023-04-21T08:52:15;9.90;;;3.67;;
6033;SDS011;3045;43.226;27.858;2023-04-21T08:54:43;13.07;;;4.33;;
6033;SDS011;3045;43.226;27.858;2023-04-21T08:57:16;11.30;;;3.97;;
6033;SDS011;3045;43.226;27.858;2023-04-21T08:59:43;18.17;;;10.53;;
6033;SDS011;3045;43.226;27.858;2023-04-21T09:02:10;14.30;;;4.57;;
6033;SDS011;3045;43.226;27.858;2023-04-21T09:04:39;20.33;;;4.43;;
6033;SDS011;3045;43.226;27.858;2023-04-21T09:07:08;16.67;;;4.10;;
6033;SDS011;3045;43.226;27.858;2023-04-21T09:09:50;21.83;;;4.07;;
6033;SDS011;3045;43.226;27.858;2023-04-21T09:12:18;18.73;;;4.87;;
6033;SDS011;3045;43.226;27.858;2023-04-21T09:14:45;21.93;;;4.80;;
6033;SDS011;3045;43.226;27.858;2023-04-21T09:17:13;17.60;;;4.37;;
6033;SDS011;3045;43.226;27.858;2023-04-21T09:19:41;12.60;;;3.80;;
6033;SDS011;3045;43.226;27.858;2023-04-21T09:22:11;13.40;;;4.67;;
6033;SDS011;3045;43.226;27.858;2023-04-21T09:24:43;7.50;;;3.43;;
6033;SDS011;3045;43.226;27.858;2023-04-21T09:27:11;13.07;;;3.90;;
6033;SDS011;3045;43.226;27.858;2023-04-21T09:29:38;10.97;;;3.73;;
6033;SDS011;3045;43.226;27.858;2023-04-21T09:32:11;13.43;;;4.87;;
6033;SDS011;3045;43.226;27.858;2023-04-21T09:34:43;12.20;;;4.23;;
6033;SDS011;3045;43.226;27.858;2023-04-21T09:37:12;14.43;;;4.20;;
6033;SDS011;3045;43.226;27.858;2023-04-21T09:39:40;17.93;;;4.00;;
6033;SDS011;3045;43.226;27.858;2023-04-21T09:42:11;9.83;;;3.77;;
6033;SDS011;3045;43.226;27.858;2023-04-21T09:44:38;16.47;;;3.53;;
6033;SDS011;3045;43.226;27.858;2023-04-21T09:47:04;6.30;;;2.83;;
6033;SDS011;3045;43.226;27.858;2023-04-21T09:49:36;15.20;;;3.87;;
6033;SDS011;3045;43.226;27.858;2023-04-21T09:52:08;8.57;;;3.17;;
6033;SDS011;3045;43.226;27.858;2023-04-21T09:54:41;10.77;;;3.10;;
6033;SDS011;3045;43.226;27.858;2023-04-21T09:57:16;9.67;;;3.90;;
6033;SDS011;3045;43.226;27.858;2023-04-21T09:59:47;9.83;;;2.87;;
6033;SDS011;3045;43.226;27.858;2023-04-21T10:02:19;7.47;;;3.40;;
6033;SDS011;3045;43.226;27.858;2023-04-21T10:04:50;4.40;;;3.33;;
6033;SDS011;3045;43.226;27.858;2023-04-21T10:07:17;10.27;;;3.10;;
6033;SDS011;3045;43.226;27.858;2023-04-21T10:09:46;13.53;;;4.27;;
6033;SDS011;3045;43.226;27.858;2023-04-21T10:12:16;7.53;;;3.33;;
6033;SDS011;3045;43.226;27.858;2023-04-21T10:14:44;20.20;;;4.30;;
6033;SDS011;3045;43.226;27.858;2023-04-21T10:17:11;15.10;;;3.63;;
6033;SDS011;3045;43.226;27.858;2023-04-21T10:19:46;6.93;;;3.10;;
6033;SDS011;3045;43.226;27.858;2023-04-21T10:22:14;12.83;;;3.77;;
6033;SDS011;3045;43.226;27.858;2023-04-21T10:24:55;13.00;;;3.73;;
6033;SDS011;3045;43.226;27.858;2023-04-21T10:27:29;8.77;;;3.43;;
6033;SDS011;3045;43.226;27.858;2023-04-21T10:29:57;8.80;;;3.43;;
6033;SDS011;3045;43.226;27.858;2023-04-21T10:32:38;6.37;;;3.63;;
6033;SDS011;3045;43.226;27.858;2023-04-21T10:35:09;9.57;;;2.97;;
6033;SDS011;3045;43.226;27.858;2023-04-21T10:37:36;7.03;;;3.47;;
6033;SDS011;3045;43.226;27.858;2023-04-21T10:40:05;10.80;;;4.00;;
6033;SDS011;3045;43.226;27.858;2023-04-21T10:42:35;7.10;;;3.17;;
6033;SDS011;3045;43.226;27.858;2023-04-21T10:45:09;3.43;;;3.00;;
6033;SDS011;3045;43.226;27.858;2023-04-21T10:47:37;10.33;;;3.23;;
6033;SDS011;3045;43.226;27.858;2023-04-21T10:50:10;7.00;;;3.20;;
6033;SDS011;3045;43.226;27.858;2023-04-21T10:52:42;8.73;;;3.17;;
6033;SDS011;3045;43.226;27.858;2023-04-21T10:55:11;9.50;;;3.47;;
6033;SDS011;3045;43.226;27.858;2023-04-21T10:57:41;8.27;;;3.43;;
6033;SDS011;3045;43.226;27.858;2023-04-21T11:00:11;9.43;;;3.40;;
6033;SDS011;3045;43.226;27.858;2023-04-21T11:02:41;11.50;;;3.27;;
6033;SDS011;3045;43.226;27.858;2023-04-21T11:05:09;7.17;;;3.57;;
6033;SDS011;3045;43.226;27.858;2023-04-21T11:07:36;8.03;;;3.30;;
6033;SDS011;3045;43.226;27.858;2023-04-21T11:10:04;7.03;;;3.30;;
6033;SDS011;3045;43.226;27.858;2023-04-21T11:12:35;8.20;;;3.63;;
6033;SDS011;3045;43.226;27.858;2023-04-21T11:15:04;7.97;;;3.60;;
6033;SDS011;3045;43.226;27.858;2023-04-21T11:17:32;8.53;;;3.33;;
6033;SDS011;3045;43.226;27.858;2023-04-21T11:20:00;8.50;;;3.33;;
6033;SDS011;3045;43.226;27.858;2023-04-21T11:22:28;6.80;;;3.17;;
6033;SDS011;3045;43.226;27.858;2023-04-21T11:24:55;10.50;;;2.87;;
6033;SDS011;3045;43.226;27.858;2023-04-21T11:27:27;7.70;;;3.00;;
6033;SDS011;3045;43.226;27.858;2023-04-21T11:29:56;11.93;;;3.60;;
6033;SDS011;3045;43.226;27.858;2023-04-21T11:32:23;8.10;;;3.00;;
6033;SDS011;3045;43.226;27.858;2023-04-21T11:34:50;8.37;;;3.47;;
6033;SDS011;3045;43.226;27.858;2023-04-21T11:37:21;8.63;;;3.00;;
6033;SDS011;3045;43.226;27.858;2023-04-21T11:39:55;4.67;;;2.57;;
6033;SDS011;3045;43.226;27.858;2023-04-21T11:42:22;6.80;;;3.60;;
6033;SDS011;3045;43.226;27.858;2023-04-21T11:44:52;6.70;;;2.73;;
6033;SDS011;3045;43.226;27.858;2023-04-21T11:47:21;3.87;;;2.60;;
6033;SDS011;3045;43.226;27.858;2023-04-21T11:50:28;4.47;;;2.70;;
6033;SDS011;3045;43.226;27.858;2023-04-21T11:52:56;10.60;;;3.40;;
6033;SDS011;3045;43.226;27.858;2023-04-21T11:55:23;8.43;;;2.50;;
6033;SDS011;3045;43.226;27.858;2023-04-21T11:57:50;6.43;;;2.90;;
6033;SDS011;3045;43.226;27.858;2023-04-21T12:00:17;13.70;;;3.30;;
6033;SDS011;3045;43.226;27.858;2023-04-21T12:02:54;12.40;;;3.03;;
6033;SDS011;3045;43.226;27.858;2023-04-21T12:05:21;2.43;;;2.30;;
6033;SDS011;3045;43.226;27.858;2023-04-21T12:07:48;11.73;;;2.83;;
6033;SDS011;3045;43.226;27.858;2023-04-21T12:10:16;7.50;;;2.37;;
6033;SDS011;3045;43.226;27.858;2023-04-21T12:12:44;7.33;;;2.57;;
6033;SDS011;3045;43.226;27.858;2023-04-21T12:15:16;8.30;;;2.63;;
6033;SDS011;3045;43.226;27.858;2023-04-21T12:17:44;7.53;;;2.60;;
6033;SDS011;3045;43.226;27.858;2023-04-21T12:20:13;5.47;;;2.63;;
6033;SDS011;3045;43.226;27.858;2023-04-21T12:22:42;7.07;;;2.97;;
6033;SDS011;3045;43.226;27.858;2023-04-21T12:25:09;12.20;;;3.17;;
6033;SDS011;3045;43.226;27.858;2023-04-21T12:27:36;9.80;;;3.27;;
6033;SDS011;3045;43.226;27.858;2023-04-21T12:30:03;7.57;;;2.97;;
6033;SDS011;3045;43.226;27.858;2023-04-21T12:32:31;14.47;;;3.10;;
6033;SDS011;3045;43.226;27.858;2023-04-21T12:34:58;10.73;;;3.17;;
6033;SDS011;3045;43.226;27.858;2023-04-21T12:37:27;13.30;;;2.90;;
6033;SDS011;3045;43.226;27.858;2023-04-21T12:39:54;16.97;;;2.87;;
6033;SDS011;3045;43.226;27.858;2023-04-21T12:42:21;21.90;;;3.33;;
6033;SDS011;3045;43.226;27.858;2023-04-21T12:44:48;18.87;;;4.00;;
6033;SDS011;3045;43.226;27.858;2023-04-21T12:47:15;10.93;;;3.40;;
6033;SDS011;3045;43.226;27.858;2023-04-21T12:49:42;9.83;;;2.73;;
6033;SDS011;3045;43.226;27.858;2023-04-21T12:52:08;11.03;;;3.17;;
6033;SDS011;3045;43.226;27.858;2023-04-21T12:54:37;12.50;;;4.00;;
6033;SDS011;3045;43.226;27.858;2023-04-21T12:57:04;6.20;;;3.20;;
6033;SDS011;3045;43.226;27.858;2023-04-21T12:59:31;13.67;;;3.30;;
6033;SDS011;3045;43.226;27.858;2023-04-21T13:01:58;13.23;;;4.10;;
6033;SDS011;3045;43.226;27.858;2023-04-21T13:04:25;11.27;;;3.77;;
6033;SDS011;3045;43.226;27.858;2023-04-21T13:06:52;14.90;;;3.23;;
6033;SDS011;3045;43.226;27.858;2023-04-21T13:09:19;13.30;;;3.50;;
6033;SDS011;3045;43.226;27.858;2023-04-21T13:11:47;6.10;;;3.60;;
6033;SDS011;3045;43.226;27.858;2023-04-21T13:14:15;7.40;;;3.20;;
6033;SDS011;3045;43.226;27.858;2023-04-21T13:16:42;7.50;;;3.60;;
6033;SDS011;3045;43.226;27.858;2023-04-21T13:19:09;9.30;;;3.00;;
6033;SDS011;3045;43.226;27.858;2023-04-21T13:21:39;6.63;;;3.30;;
6033;SDS011;3045;43.226;27.858;2023-04-21T13:24:06;8.10;;;2.87;;
6033;SDS011;3045;43.226;27.858;2023-04-21T13:26:33;10.13;;;3.33;;
6033;SDS011;3045;43.226;27.858;2023-04-21T13:29:03;10.63;;;2.90;;
6033;SDS011;3045;43.226;27.858;2023-04-21T13:31:30;7.80;;;3.57;;
6033;SDS011;3045;43.226;27.858;2023-04-21T13:33:57;13.57;;;3.90;;
6033;SDS011;3045;43.226;27.858;2023-04-21T13:36:25;13.13;;;3.67;;
6033;SDS011;3045;43.226;27.858;2023-04-21T13:38:52;8.10;;;2.97;;
6033;SDS011;3045;43.226;27.858;2023-04-21T13:41:20;11.60;;;3.43;;
6033;SDS011;3045;43.226;27.858;2023-04-21T13:43:47;9.10;;;3.40;;
6033;SDS011;3045;43.226;27.858;2023-04-21T13:46:15;8.97;;;3.33;;
6033;SDS011;3045;43.226;27.858;2023-04-21T13:48:43;11.70;;;3.30;;
6033;SDS011;3045;43.226;27.858;2023-04-21T13:51:15;18.80;;;4.17;;
6033;SDS011;3045;43.226;27.858;2023-04-21T13:53:45;7.97;;;3.23;;
6033;SDS011;3045;43.226;27.858;2023-04-21T13:56:12;5.87;;;3.60;;
6033;SDS011;3045;43.226;27.858;2023-04-21T13:58:39;9.67;;;3.17;;
6033;SDS011;3045;43.226;27.858;2023-04-21T14:01:06;19.73;;;3.57;;
6033;SDS011;3045;43.226;27.858;2023-04-21T14:03:35;11.70;;;3.33;;
6033;SDS011;3045;43.226;27.858;2023-04-21T14:06:02;7.40;;;2.80;;
6033;SDS011;3045;43.226;27.858;2023-04-21T14:08:29;6.50;;;3.23;;
6033;SDS011;3045;43.226;27.858;2023-04-21T14:10:56;9.27;;;3.20;;
6033;SDS011;3045;43.226;27.858;2023-04-21T14:13:23;11.53;;;3.70;;
6033;SDS011;3045;43.226;27.858;2023-04-21T14:15:52;15.37;;;3.97;;
6033;SDS011;3045;43.226;27.858;2023-04-21T14:18:19;10.00;;;3.27;;
6033;SDS011;3045;43.226;27.858;2023-04-21T14:20:48;7.57;;;3.43;;
6033;SDS011;3045;43.226;27.858;2023-04-21T14:23:15;11.23;;;3.33;;
6033;SDS011;3045;43.226;27.858;2023-04-21T14:25:42;6.13;;;3.27;;
6033;SDS011;3045;43.226;27.858;2023-04-21T14:28:09;11.10;;;3.10;;
6033;SDS011;3045;43.226;27.858;2023-04-21T14:30:36;10.70;;;3.63;;
6033;SDS011;3045;43.226;27.858;2023-04-21T14:33:03;17.60;;;3.33;;
6033;SDS011;3045;43.226;27.858;2023-04-21T14:35:30;10.17;;;3.63;;
6033;SDS011;3045;43.226;27.858;2023-04-21T14:37:59;5.57;;;3.07;;
6033;SDS011;3045;43.226;27.858;2023-04-21T14:40:26;6.53;;;3.60;;
6033;SDS011;3045;43.226;27.858;2023-04-21T14:42:52;8.73;;;2.87;;
6033;SDS011;3045;43.226;27.858;2023-04-21T14:45:19;9.73;;;3.57;;
6033;SDS011;3045;43.226;27.858;2023-04-21T14:47:48;14.47;;;3.23;;
6033;SDS011;3045;43.226;27.858;2023-04-21T14:50:15;11.07;;;3.40;;
6033;SDS011;3045;43.226;27.858;2023-04-21T14:52:42;10.80;;;3.47;;
6033;SDS011;3045;43.226;27.858;2023-04-21T14:55:14;7.83;;;2.83;;